Time;durP1;ratioP1;P1;durP2;ratioP2;P2;SDS_P1;SDS_P2;PMS_P1;PMS_P2;Temp;Humidity;BMP_temperature;BMP_pressure;BME280_temperature;BME280_humidity;BME280_pressure;Samples;Min_cycle;Max_cycle;Signal;HPM_P1;HPM_P2
2022/05/10 00:00:56;;;;;;;4.57;2.80;;;;;;;11.08;58.92;99896.66;4994916;28;20045;-88
2022/05/10 00:03:23;;;;;;;5.82;3.13;;;;;;;10.95;58.99;99896.28;4979162;28;20029;-88
2022/05/10 00:05:49;;;;;;;6.03;3.00;;;;;;;11.00;58.97;99902.53;4979023;28;20026;-88
2022/05/10 00:08:15;;;;;;;6.05;2.90;;;;;;;10.88;59.58;99893.81;4962123;28;20037;-88
2022/05/10 00:10:41;;;;;;;7.78;3.35;;;;;;;10.89;59.53;99901.63;4993827;28;20093;-88
2022/05/10 00:13:07;;;;;;;7.85;3.15;;;;;;;10.93;59.65;99901.91;4997353;28;20444;-88
2022/05/10 00:15:32;;;;;;;8.48;3.22;;;;;;;10.90;59.80;99892.47;4980110;28;20053;-88
2022/05/10 00:17:57;;;;;;;7.82;3.33;;;;;;;10.78;59.71;99894.53;4963439;28;20038;-88
2022/05/10 00:20:24;;;;;;;7.07;3.17;;;;;;;10.80;59.71;99892.38;4978084;28;20495;-89
2022/05/10 00:22:50;;;;;;;8.25;3.45;;;;;;;10.67;59.66;99887.44;4962447;28;20120;-88
2022/05/10 00:25:19;;;;;;;17.35;3.72;;;;;;;10.56;60.52;99891.09;4961759;28;20026;-88
2022/05/10 00:27:44;;;;;;;7.97;4.35;;;;;;;10.56;60.59;99891.09;4962207;28;20022;-87
2022/05/10 00:30:10;;;;;;;6.32;4.07;;;;;;;10.64;59.93;99888.75;4978289;28;20029;-87
2022/05/10 00:32:36;;;;;;;7.32;4.40;;;;;;;10.59;60.01;99887.91;4958725;28;20579;-87
2022/05/10 00:35:04;;;;;;;10.73;4.13;;;;;;;10.67;60.18;99887.44;4959299;28;20027;-88
2022/05/10 00:37:29;;;;;;;9.52;4.28;;;;;;;10.58;59.88;99881.69;4974677;28;20119;-88
2022/05/10 00:39:55;;;;;;;9.23;4.32;;;;;;;10.53;60.37;99884.34;4975383;28;20505;-87
2022/05/10 00:42:33;;;;;;;6.35;3.67;;;;;;;10.51;60.38;99879.22;4974600;28;20033;-88
2022/05/10 00:45:07;;;;;;;11.45;4.05;;;;;;;10.60;60.29;99890.31;4961162;28;20062;-88
2022/05/10 00:48:06;;;;;;;8.13;3.67;;;;;;;10.38;60.73;99857.28;4976552;28;20030;-88
2022/05/10 00:50:35;;;;;;;6.63;3.50;;;;;;;10.40;61.09;99874.81;4973758;28;20031;-88
2022/05/10 00:53:09;;;;;;;8.13;3.78;;;;;;;10.44;60.90;99886.69;4976238;28;20105;-88
2022/05/10 00:55:34;;;;;;;7.72;3.67;;;;;;;10.42;60.64;99880.75;4976088;28;20023;-88
2022/05/10 00:58:10;;;;;;;8.40;3.58;;;;;;;10.42;60.57;99877.25;4992400;28;20027;-88
2022/05/10 01:00:35;;;;;;;5.28;3.17;;;;;;;10.54;58.38;99875.19;4959338;28;20054;-87
2022/05/10 01:03:15;;;;;;;9.57;3.05;;;;;;;10.63;58.67;99879.06;4975792;28;20564;-88
2022/05/10 01:06:27;;;;;;;6.55;3.10;;;;;;;10.58;58.66;99870.91;4976143;28;20030;-88
2022/05/10 01:09:06;;;;;;;8.32;3.38;;;;;;;10.36;59.98;99871.00;4971449;28;20488;-87
2022/05/10 01:11:58;;;;;;;8.85;3.22;;;;;;;10.38;59.81;99868.06;4976834;28;20031;-92
2022/05/10 01:14:39;;;;;;;8.30;3.10;;;;;;;10.40;59.28;99864.03;4986775;28;20085;-93
2022/05/10 01:17:04;;;;;;;8.13;3.25;;;;;;;10.49;59.62;99867.06;4961731;28;20497;-93
2022/05/10 01:19:31;;;;;;;9.82;3.00;;;;;;;10.36;59.95;99857.53;4978019;28;20023;-94
2022/05/10 01:22:21;;;;;;;5.90;3.30;;;;;;;10.41;59.88;99872.91;4977547;28;20489;-94
2022/05/10 01:25:15;;;;;;;5.93;3.08;;;;;;;10.38;60.15;99876.13;4977292;28;20396;-93
2022/05/10 01:27:46;;;;;;;6.97;3.28;;;;;;;10.38;60.06;99874.25;4987845;28;20101;-93
2022/05/10 01:30:15;;;;;;;7.47;3.40;;;;;;;10.34;61.08;99873.13;4977535;28;20031;-93
2022/05/10 01:35:53;;;;;;;5.28;2.90;;;;;;;10.26;60.81;99860.91;4979026;28;20034;-93
2022/05/10 01:38:29;;;;;;;5.72;3.20;;;;;;;10.26;60.91;99858.22;4980718;28;20082;-93
2022/05/10 01:41:03;;;;;;;7.63;3.75;;;;;;;10.25;60.37;99863.84;4981241;28;20035;-93
2022/05/10 01:44:02;;;;;;;5.82;3.10;;;;;;;10.27;60.86;99867.09;4966451;28;20484;-93
2022/05/10 01:46:30;;;;;;;4.50;2.90;;;;;;;10.09;61.17;99860.22;4961867;29;20035;-93
2022/05/10 01:49:02;;;;;;;5.75;3.65;;;;;;;10.00;61.52;99851.78;4912964;29;20035;-93
2022/05/10 01:51:34;;;;;;;7.93;3.10;;;;;;;9.97;61.62;99854.97;4912426;29;20035;-94
2022/05/10 01:54:00;;;;;;;;;;;;;;;9.96;61.46;99866.78;4914038;29;20031;-94
2022/05/10 01:56:26;;;;;;;8.43;3.10;;;;;;;9.87;61.89;99861.03;4945159;29;19961;-95
2022/05/10 01:58:52;;;;;;;7.57;3.30;;;;;;;9.75;61.59;99849.59;4929217;28;20438;-93
2022/05/10 02:01:17;;;;;;;5.00;3.33;;;;;;;9.96;61.56;99868.66;4912623;29;20057;-93
2022/05/10 02:04:12;;;;;;;9.48;3.47;;;;;;;10.04;60.96;99854.75;4961049;29;20554;-93
2022/05/10 02:06:43;;;;;;;11.18;4.20;;;;;;;10.04;61.41;99855.59;4928774;29;20039;-92
2022/05/10 02:09:19;;;;;;;4.40;3.17;;;;;;;9.86;61.96;99858.59;4944938;28;20035;-93
2022/05/10 02:12:14;;;;;;;5.53;3.45;;;;;;;9.86;62.05;99862.09;4929796;29;20035;-93
2022/05/10 02:14:41;;;;;;;4.97;3.33;;;;;;;9.68;62.58;99854.34;4942023;29;20072;-94
2022/05/10 02:17:19;;;;;;;9.18;3.20;;;;;;;9.79;62.35;99863.34;4941143;28;20455;-93
2022/05/10 02:20:05;;;;;;;8.45;3.28;;;;;;;9.78;62.54;99859.84;4979839;28;20065;-94
2022/05/10 02:22:37;;;;;;;7.00;3.35;;;;;;;9.70;62.86;99863.00;4979944;28;20046;-94
2022/05/10 02:25:11;;;;;;;7.35;3.60;;;;;;;9.54;63.40;99845.03;4980109;28;20058;-93
2022/05/10 02:27:39;;;;;;;5.55;3.13;;;;;;;9.53;63.17;99846.13;4979086;28;20136;-94
2022/05/10 02:30:16;;;;;;;6.20;3.50;;;;;;;9.55;63.64;99862.81;4978570;28;20038;-93
2022/05/10 02:33:06;;;;;;;5.57;3.25;;;;;;;9.51;63.60;99846.34;4979638;28;20043;-93
2022/05/10 02:35:49;;;;;;;7.07;3.08;;;;;;;9.48;63.86;99852.22;4982871;28;20485;-93
2022/05/10 02:38:15;;;;;;;;;;;;;;;9.50;63.95;99853.63;4967546;28;20035;-92
2022/05/10 02:40:41;;;;;;;6.97;3.70;;;;;;;9.47;64.14;99855.97;4996235;28;19918;-93
2022/05/10 02:43:19;;;;;;;9.35;3.60;;;;;;;9.33;64.20;99849.34;4964673;28;20007;-93
2022/05/10 02:45:45;;;;;;;6.82;3.80;;;;;;;9.30;64.47;99839.91;4980661;28;20018;-94
2022/05/10 02:48:37;;;;;;;8.05;3.67;;;;;;;9.35;64.26;99866.03;4978729;28;20141;-93
2022/05/10 02:51:03;;;;;;;8.10;3.63;;;;;;;9.29;64.80;99849.00;4992580;28;20038;-94
2022/05/10 02:53:29;;;;;;;5.97;3.42;;;;;;;9.24;64.41;99851.66;4980029;28;20026;-93
2022/05/10 02:55:56;;;;;;;7.88;3.72;;;;;;;9.25;64.48;99861.31;4964253;28;20033;-93
2022/05/10 02:58:28;;;;;;;10.32;3.33;;;;;;;9.00;65.18;99857.19;4979591;28;20042;-93
2022/05/10 03:00:56;;;;;;;4.68;3.10;;;;;;;9.09;65.42;99868.38;4979359;28;20031;-93
2022/05/10 03:03:21;;;;;;;6.53;3.55;;;;;;;8.99;64.92;99858.28;4978636;28;20031;-94
2022/05/10 03:05:47;;;;;;;5.90;3.55;;;;;;;9.02;65.07;99860.44;4963787;28;20029;-94
2022/05/10 03:08:12;;;;;;;8.13;3.63;;;;;;;9.04;65.17;99876.34;4963120;28;20027;-94
2022/05/10 03:10:38;;;;;;;7.75;3.75;;;;;;;9.13;64.86;99869.50;4963226;28;20054;-93
2022/05/10 03:13:03;;;;;;;8.18;4.15;;;;;;;9.20;64.28;99859.38;4978588;28;20031;-93
2022/05/10 03:15:29;;;;;;;6.72;3.70;;;;;;;9.19;64.56;99870.38;4963953;28;20567;-94
2022/05/10 03:17:54;;;;;;;16.08;4.10;;;;;;;9.14;64.58;99870.31;4980144;28;20465;-94
2022/05/10 03:20:20;;;;;;;11.35;3.88;;;;;;;9.17;64.71;99880.53;4980389;28;20102;-93
2022/05/10 03:22:45;;;;;;;9.13;4.20;;;;;;;9.14;64.74;99881.06;4979074;28;20109;-93
2022/05/10 03:25:11;;;;;;;8.15;4.00;;;;;;;9.10;64.97;99886.91;4979230;28;20027;-93
2022/05/10 03:27:37;;;;;;;9.13;3.60;;;;;;;9.05;64.66;99877.97;4995033;28;20085;-93
2022/05/10 03:30:04;;;;;;;10.70;4.88;;;;;;;8.92;65.33;99870.22;4980659;28;20511;-95
2022/05/10 03:32:29;;;;;;;12.05;4.18;;;;;;;8.95;65.33;99875.13;4962371;28;20077;-94
2022/05/10 03:34:57;;;;;;;9.50;4.47;;;;;;;9.01;65.00;99882.22;4963428;28;20027;-94
2022/05/10 03:37:22;;;;;;;6.85;4.22;;;;;;;8.90;65.46;99874.00;4963076;28;20019;-94
2022/05/10 03:39:48;;;;;;;12.63;4.32;;;;;;;8.97;65.56;99892.63;4978848;28;20030;-94
2022/05/10 03:42:13;;;;;;;9.00;4.13;;;;;;;8.89;65.42;99879.59;4978843;28;20026;-94
2022/05/10 03:44:39;;;;;;;13.10;4.40;;;;;;;8.87;65.65;99879.03;4979513;28;20066;-93
2022/05/10 03:47:05;;;;;;;11.15;5.35;;;;;;;8.99;65.82;99887.00;4979863;28;20015;-94
2022/05/10 03:49:31;;;;;;;15.27;6.13;;;;;;;9.12;65.00;99888.53;4964235;28;20351;-93
2022/05/10 03:51:56;;;;;;;21.02;7.28;;;;;;;9.25;65.04;99888.19;4963507;28;20026;-92
2022/05/10 03:54:22;;;;;;;18.08;7.57;;;;;;;9.36;64.67;99894.50;4964003;28;20033;-93
2022/05/10 03:56:48;;;;;;;11.27;4.93;;;;;;;9.60;62.27;99904.00;4966315;28;20033;-94
2022/05/10 03:59:15;;;;;;;8.02;4.72;;;;;;;9.63;61.46;99900.81;4967827;28;20041;-93
2022/05/10 04:01:40;;;;;;;12.43;4.90;;;;;;;9.81;61.20;99912.31;4966910;28;20026;-94
2022/05/10 04:04:06;;;;;;;30.65;7.93;;;;;;;9.75;60.93;99892.63;4965539;28;20031;-93
2022/05/10 04:06:32;;;;;;;13.10;6.45;;;;;;;9.91;60.45;99904.38;4965428;28;20066;-94
2022/05/10 04:08:58;;;;;;;21.17;7.07;;;;;;;9.90;60.91;99913.53;4981755;28;20472;-94
2022/05/10 04:11:24;;;;;;;12.02;7.18;;;;;;;9.70;60.97;99890.69;4965930;28;20027;-94
2022/05/10 04:13:49;;;;;;;30.88;8.00;;;;;;;9.82;60.97;99898.63;4965402;28;20030;-93
2022/05/10 04:16:16;;;;;;;11.52;6.70;;;;;;;9.83;60.54;99902.13;4965418;28;20029;-94
2022/05/10 04:18:41;;;;;;;12.77;6.07;;;;;;;9.74;61.48;99903.63;4956691;28;20110;-94
2022/05/10 04:21:08;;;;;;;17.88;4.85;;;;;;;9.84;60.59;99915.34;4984006;28;20015;-94
2022/05/10 04:23:34;;;;;;;8.32;3.28;;;;;;;9.84;60.52;99912.66;4961389;28;20026;-94
2022/05/10 04:26:04;;;;;;;15.38;4.68;;;;;;;9.82;60.62;99903.22;4978711;28;20026;-94
2022/05/10 04:28:30;;;;;;;13.38;4.10;;;;;;;9.84;61.04;99912.66;4978368;28;20046;-90
2022/05/10 04:30:56;;;;;;;9.18;4.60;;;;;;;9.93;60.98;99907.63;4980957;28;20046;-94
2022/05/10 04:33:21;;;;;;;14.45;5.43;;;;;;;10.01;60.33;99922.53;4980662;28;20034;-95
2022/05/10 04:35:47;;;;;;;10.95;4.13;;;;;;;10.08;59.88;99917.75;4988694;28;20019;-93
2022/05/10 04:38:13;;;;;;;16.73;4.72;;;;;;;10.09;60.43;99909.44;4986163;28;20031;-95
2022/05/10 04:43:22;;;;;;;14.65;4.20;;;;;;;10.25;59.66;99929.28;4981589;28;20085;-88
2022/05/10 04:45:48;;;;;;;19.65;5.60;;;;;;;10.35;60.30;99931.28;4979568;28;20022;-89
2022/05/10 04:48:13;;;;;;;11.95;6.15;;;;;;;10.47;59.94;99933.81;5014299;28;20026;-91
2022/05/10 04:50:39;;;;;;;11.35;4.13;;;;;;;10.48;59.34;99940.84;4977707;28;20018;-89
2022/05/10 04:53:07;;;;;;;13.07;3.83;;;;;;;10.41;58.68;99899.84;4981342;28;20015;-88
2022/05/10 04:55:35;;;;;;;20.33;3.17;;;;;;;10.52;58.59;99925.78;4979825;28;20026;-89
2022/05/10 04:58:00;;;;;;;9.93;3.63;;;;;;;10.64;58.32;99921.06;4972910;28;21477;-89
2022/05/10 05:00:26;;;;;;;16.20;3.40;;;;;;;10.64;58.75;99925.63;4997119;28;20026;-89
2022/05/10 05:02:52;;;;;;;11.93;3.35;;;;;;;10.76;58.46;99928.19;4998165;28;20030;-89
2022/05/10 05:05:18;;;;;;;12.05;3.38;;;;;;;10.82;57.66;99911.78;5000702;28;20049;-89
2022/05/10 05:07:43;;;;;;;14.82;3.50;;;;;;;10.97;57.69;99918.38;4987332;28;20034;-89
2022/05/10 05:10:09;;;;;;;7.95;3.15;;;;;;;11.13;57.33;99930.91;4981288;28;20146;-90
2022/05/10 05:12:36;;;;;;;4.88;2.75;;;;;;;11.28;57.09;99935.59;4991925;28;20058;-89
2022/05/10 05:15:08;;;;;;;7.10;3.58;;;;;;;11.40;56.62;99933.50;4984973;28;20058;-90
2022/05/10 05:17:34;;;;;;;8.27;3.28;;;;;;;11.44;56.18;99904.97;5006696;28;20062;-90
2022/05/10 05:19:59;;;;;;;10.10;3.60;;;;;;;11.57;55.90;99911.78;4976896;28;20049;-89
2022/05/10 05:22:26;;;;;;;10.68;2.58;;;;;;;11.58;56.27;99916.09;4977771;28;20081;-89
2022/05/10 05:24:54;;;;;;;11.73;3.58;;;;;;;11.72;55.92;99919.13;4981877;28;20030;-87
2022/05/10 05:27:20;;;;;;;6.30;3.33;;;;;;;11.86;55.85;99916.78;4984109;28;20066;-92
2022/05/10 05:29:46;;;;;;;5.75;3.05;;;;;;;11.69;55.73;99890.78;4990978;28;20041;-92
2022/05/10 05:32:12;;;;;;;11.13;2.88;;;;;;;11.89;55.58;99909.00;4966541;28;20080;-89
2022/05/10 05:34:37;;;;;;;8.70;3.50;;;;;;;12.07;55.97;99909.59;4983707;28;20481;-90
2022/05/10 05:39:47;;;;;;;85.05;9.02;;;;;;;12.20;55.63;99917.19;4968802;28;20045;-90
2022/05/10 05:42:13;;;;;;;13.88;4.22;;;;;;;12.29;55.17;99923.69;4973842;28;20046;-88
2022/05/10 05:44:38;;;;;;;9.32;5.20;;;;;;;12.39;54.93;99911.28;4984799;28;20121;-93
2022/05/10 05:47:04;;;;;;;17.30;6.03;;;;;;;12.67;53.42;99913.50;4972848;28;20030;-94
2022/05/10 05:49:38;;;;;;;14.07;5.57;;;;;;;12.94;53.57;99917.81;4985547;28;20045;-91
2022/05/10 05:52:11;;;;;;;13.55;4.68;;;;;;;13.11;53.04;99922.94;4995727;28;20018;-96
2022/05/10 05:54:47;;;;;;;14.65;6.60;;;;;;;13.20;52.08;99923.22;4985464;28;20038;-90
2022/05/10 05:57:13;;;;;;;10.70;6.82;;;;;;;13.27;52.12;99938.09;4976907;28;20031;-93
2022/05/10 05:59:40;;;;;;;14.18;5.32;;;;;;;13.27;51.43;99918.34;4989956;28;20018;-89
2022/05/10 06:02:17;;;;;;;9.50;4.47;;;;;;;13.49;51.59;99916.19;5007969;28;20065;-91
2022/05/10 06:04:45;;;;;;;17.70;4.80;;;;;;;13.54;51.15;99912.66;4990285;28;20129;-89
2022/05/10 06:07:11;;;;;;;219.50;17.05;;;;;;;13.60;50.96;99914.25;4969431;28;20030;-91
2022/05/10 06:09:40;;;;;;;90.30;7.72;;;;;;;13.88;50.95;99928.22;5006221;28;20090;-92
2022/05/10 06:12:07;;;;;;;10.80;3.22;;;;;;;14.02;50.80;99933.88;4991976;28;20074;-92
2022/05/10 06:14:42;;;;;;;9.93;3.03;;;;;;;14.18;50.45;99940.84;4989864;28;20030;-93
2022/05/10 06:17:08;;;;;;;5.40;2.75;;;;;;;14.28;49.78;99924.53;4988323;28;20035;-93
2022/05/10 06:19:34;;;;;;;5.25;2.85;;;;;;;14.53;48.74;99930.88;4993555;28;20030;-94
2022/05/10 06:22:02;;;;;;;12.15;3.25;;;;;;;14.78;48.04;99942.69;4987859;28;20069;-94
2022/05/10 06:24:30;;;;;;;9.68;2.83;;;;;;;14.67;47.62;99902.09;4991487;28;20058;-93
2022/05/10 06:26:59;;;;;;;10.68;3.80;;;;;;;14.68;47.02;99909.13;4992695;28;20030;-94
2022/05/10 06:29:24;;;;;;;7.57;2.83;;;;;;;14.90;46.81;99910.56;5005894;28;20026;-93
2022/05/10 06:31:50;;;;;;;8.73;3.10;;;;;;;15.02;46.71;99908.31;4991678;28;20046;-92
2022/05/10 06:34:16;;;;;;;7.15;4.40;;;;;;;15.17;46.49;99904.66;4993428;28;20038;-95
2022/05/10 06:39:52;;;;;;;7.93;4.25;;;;;;;15.52;45.14;99917.06;4965132;28;20042;-94
2022/05/10 06:42:22;;;;;;;14.15;3.85;;;;;;;15.69;45.00;99941.03;4936515;29;20517;-93
2022/05/10 06:44:54;;;;;;;20.60;6.30;;;;;;;15.69;44.49;99908.47;4934131;29;20019;-91
2022/05/10 06:47:20;;;;;;;15.35;4.03;;;;;;;15.90;44.77;99933.50;4933580;29;20149;-95
2022/05/10 06:49:47;;;;;;;14.23;4.50;;;;;;;16.00;44.56;99918.16;4917837;29;20028;-93
2022/05/10 06:52:47;;;;;;;18.30;5.32;;;;;;;15.99;44.83;99909.19;4917956;29;20027;-93
2022/05/10 06:55:13;;;;;;;10.75;4.13;;;;;;;16.34;44.50;99940.53;4954672;29;20039;-95
2022/05/10 06:57:45;;;;;;;12.82;3.95;;;;;;;16.50;43.37;99941.13;4937705;28;20078;-94
2022/05/10 07:00:12;;;;;;;8.32;3.60;;;;;;;16.59;42.40;99929.59;4934516;29;20035;-94
2022/05/10 07:02:39;;;;;;;4.40;2.33;;;;;;;16.69;42.49;99935.69;4934667;28;20045;-95
2022/05/10 07:05:14;;;;;;;6.78;2.60;;;;;;;16.92;42.69;99934.00;4989182;28;20030;-92
2022/05/10 07:07:45;;;;;;;6.55;2.60;;;;;;;17.13;41.39;99941.81;4965606;29;20164;-92
2022/05/10 07:10:11;;;;;;;14.82;3.03;;;;;;;17.17;41.24;99930.03;5001094;23;20193;-92
2022/05/10 07:12:54;;;;;;;10.35;3.00;;;;;;;17.26;41.48;99924.69;4960105;28;20095;-93
2022/05/10 07:15:26;;;;;;;21.75;4.88;;;;;;;17.56;41.20;99941.59;4994117;28;20102;-94
2022/05/10 07:17:59;;;;;;;;;;;;;;;17.74;40.76;99943.44;4987676;28;20031;-93
2022/05/10 07:21:04;;;;;;;5.20;2.80;;;;;;;17.92;40.47;99932.75;4970340;28;19913;-94
2022/05/10 07:23:42;;;;;;;8.05;2.10;;;;;;;18.04;40.05;99933.06;5005670;28;20103;-95
2022/05/10 07:26:10;;;;;;;10.40;3.25;;;;;;;18.04;40.11;99907.72;5002725;28;20591;-92
2022/05/10 07:28:36;;;;;;;9.93;2.65;;;;;;;18.28;40.19;99913.75;4996934;28;20045;-91
2022/05/10 07:31:05;;;;;;;10.18;5.90;;;;;;;18.41;39.91;99911.25;5005303;28;20042;-90
2022/05/10 07:34:08;;;;;;;5.03;1.92;;;;;;;18.67;37.82;99917.75;4985641;28;20088;-90
2022/05/10 07:36:42;;;;;;;19.38;3.65;;;;;;;18.70;37.27;99921.81;4983600;28;20030;-90
2022/05/10 07:39:10;;;;;;;8.70;2.13;;;;;;;18.81;36.99;99917.72;4981721;28;20065;-92
2022/05/10 07:41:40;;;;;;;5.32;2.83;;;;;;;19.02;36.68;99930.88;4982164;28;20084;-90
2022/05/10 07:47:26;;;;;;;16.73;2.38;;;;;;;19.21;33.59;99906.09;4998361;28;20032;-89
2022/05/10 07:49:52;;;;;;;12.73;2.53;;;;;;;19.31;32.96;99920.28;4985222;28;20026;-92
2022/05/10 07:52:21;;;;;;;7.47;2.33;;;;;;;19.46;32.55;99913.59;4987583;28;20045;-94
2022/05/10 07:55:12;;;;;;;;;;;;;;;;;;;;;
2022/05/10 07:57:45;;;;;;;12.45;3.20;;;;;;;19.90;32.27;99898.22;4980514;28;20102;-94
2022/05/10 08:00:19;;;;;;;9.65;3.53;;;;;;;19.95;31.95;99886.31;4991077;28;20062;-96
2022/05/10 08:06:33;;;;;;;8.25;2.80;;;;;;;20.52;31.52;99924.53;4965566;29;20034;-95
2022/05/10 08:09:19;;;;;;;7.43;2.30;;;;;;;20.51;31.23;99901.00;4964894;29;20046;-92
2022/05/10 08:11:48;;;;;;;3.95;2.33;;;;;;;20.59;32.03;99900.25;4937334;28;20110;-90
2022/05/10 08:14:13;;;;;;;7.53;1.73;;;;;;;20.82;30.97;99911.00;4980358;28;20063;-92
2022/05/10 08:16:39;;;;;;;17.80;3.70;;;;;;;20.78;31.97;99905.38;4954879;28;20031;-91
2022/05/10 08:19:05;;;;;;;6.78;2.13;;;;;;;20.95;31.81;99915.50;4957261;29;20110;-95
2022/05/10 08:21:39;;;;;;;8.35;3.53;;;;;;;21.14;31.55;99909.66;4953829;29;20039;-93
2022/05/10 08:24:05;;;;;;;11.02;4.40;;;;;;;21.08;31.88;99918.38;4945402;29;20031;-93
2022/05/10 08:26:33;;;;;;;9.15;2.55;;;;;;;21.15;32.02;99910.47;4946538;29;20026;-91
2022/05/10 08:29:14;;;;;;;8.27;2.78;;;;;;;21.14;31.60;99903.38;4948858;29;20031;-94
2022/05/10 08:31:43;;;;;;;13.43;3.50;;;;;;;21.23;32.29;99900.59;4950114;29;20047;-94
2022/05/10 08:34:12;;;;;;;5.13;2.00;;;;;;;21.39;31.52;99915.38;4949594;29;20066;-88
2022/05/10 08:36:37;;;;;;;14.82;8.10;;;;;;;21.43;30.96;99890.91;4947742;29;20035;-88
2022/05/10 08:39:05;;;;;;;14.30;4.05;;;;;;;21.47;30.77;99887.19;4965570;29;20031;-93
2022/05/10 08:42:08;;;;;;;;;;;;;;;;;;;;;
2022/05/10 08:44:42;;;;;;;8.77;2.08;;;;;;;21.77;30.96;99917.38;4958039;28;20039;-95
2022/05/10 08:47:15;;;;;;;9.70;2.40;;;;;;;21.62;30.91;99902.25;4966859;29;20381;-94
2022/05/10 08:50:06;;;;;;;9.48;2.67;;;;;;;21.73;30.49;99913.69;4953018;29;20066;-93
2022/05/10 08:52:43;;;;;;;5.45;3.80;;;;;;;21.86;31.31;99917.31;4969106;28;20103;-92
2022/05/10 08:55:15;;;;;;;5.05;1.92;;;;;;;21.81;31.06;99901.88;4956891;28;20454;-94
2022/05/10 08:58:25;;;;;;;7.78;3.05;;;;;;;21.83;30.17;99887.81;4938478;29;20051;-93
2022/05/10 09:00:52;;;;;;;4.57;1.75;;;;;;;21.74;30.36;99907.84;4983970;28;20110;-95
2022/05/10 09:04:05;;;;;;;5.40;1.92;;;;;;;21.67;30.55;99885.66;4967338;29;20035;-95
2022/05/10 09:06:49;;;;;;;4.30;2.00;;;;;;;21.87;30.75;99913.44;4924352;29;20071;-96
2022/05/10 09:09:32;;;;;;;4.50;1.98;;;;;;;21.80;29.62;99905.72;4969619;28;20039;-95
2022/05/10 09:13:03;;;;;;;6.15;3.00;;;;;;;21.57;29.44;99875.84;4951640;29;20051;-96
2022/05/10 09:15:44;;;;;;;9.25;3.20;;;;;;;21.55;26.10;99886.34;4950876;29;20024;-95
2022/05/10 09:18:49;;;;;;;10.88;6.32;;;;;;;21.57;26.29;99886.00;4949005;29;20012;-94
2022/05/10 09:21:38;;;;;;;5.72;2.17;;;;;;;21.47;27.57;99870.72;4918352;29;20039;-96
2022/05/10 09:24:31;;;;;;;5.07;2.92;;;;;;;21.56;27.17;99865.22;4935107;29;20032;-95
2022/05/10 09:27:32;;;;;;;5.75;2.20;;;;;;;21.48;25.89;99868.78;4951432;29;20387;-96
2022/05/10 09:30:05;;;;;;;6.45;1.67;;;;;;;21.50;26.86;99859.13;4931862;29;20036;-96
2022/05/10 09:35:28;;;;;;;6.72;2.58;;;;;;;21.52;27.67;99854.13;4945734;29;20039;-94
2022/05/10 09:41:44;;;;;;;2.45;1.40;;;;;;;21.82;25.73;99881.53;4921403;29;20128;-95
2022/05/10 09:44:29;;;;;;;5.88;2.50;;;;;;;21.79;27.29;99877.53;4938305;29;20035;-92
2022/05/10 09:50:17;;;;;;;3.75;2.40;;;;;;;21.85;25.62;99866.34;4941621;29;20043;-93
2022/05/10 09:53:13;;;;;;;4.80;2.15;;;;;;;21.86;25.41;99863.28;4898431;29;20040;-94
2022/05/10 09:55:57;;;;;;;4.22;1.90;;;;;;;21.89;24.91;99853.59;4908263;29;20075;-94
2022/05/10 09:58:51;;;;;;;3.78;1.92;;;;;;;21.91;26.21;99863.06;5010757;23;20901;-94
2022/05/10 10:01:48;;;;;;;4.28;2.20;;;;;;;21.91;25.95;99843.88;4990868;28;20046;-94
2022/05/10 10:04:31;;;;;;;3.95;1.60;;;;;;;22.02;25.66;99855.28;4939134;29;20039;-92
2022/05/10 10:08:14;;;;;;;;;;;;;;;;;;;;;
2022/05/10 10:11:14;;;;;;;;;;;;;;;;;;;;;
2022/05/10 10:14:07;;;;;;;10.98;7.50;;;;;;;22.32;26.24;99852.50;4988775;28;20055;-95
2022/05/10 10:16:45;;;;;;;6.47;2.60;;;;;;;22.13;26.29;99820.03;4963016;28;20046;-95
2022/05/10 10:19:29;;;;;;;5.53;2.50;;;;;;;22.42;25.77;99848.56;4953905;29;20019;-93
2022/05/10 10:22:30;;;;;;;4.95;3.75;;;;;;;22.42;25.90;99830.13;4976486;28;20018;-94
2022/05/10 10:25:12;;;;;;;6.15;4.05;;;;;;;22.62;24.92;99839.50;4960739;28;20042;-94
2022/05/10 10:28:22;;;;;;;8.15;3.85;;;;;;;22.72;25.64;99839.06;4971280;28;20035;-95
2022/05/10 10:31:25;;;;;;;12.70;4.60;;;;;;;22.83;25.97;99822.13;4929180;29;20065;-94
2022/05/10 10:34:07;;;;;;;9.23;4.13;;;;;;;22.94;26.58;99821.38;4945538;28;20094;-93
2022/05/10 10:36:38;;;;;;;95.78;62.30;;;;;;;22.86;25.04;99821.47;4966099;28;20027;-89
2022/05/10 10:39:27;;;;;;;11.68;6.22;;;;;;;22.85;25.55;99811.63;4963884;28;20057;-95
2022/05/10 10:42:30;;;;;;;13.32;5.60;;;;;;;22.89;26.09;99827.09;4975157;28;20105;-95
2022/05/10 10:45:19;;;;;;;6.43;4.53;;;;;;;22.68;26.10;99810.69;4990384;28;20113;-95
2022/05/10 10:47:55;;;;;;;9.88;4.47;;;;;;;22.71;25.90;99803.72;4968664;28;20035;-92
2022/05/10 10:51:02;;;;;;;17.70;5.97;;;;;;;22.93;25.56;99816.19;4951053;28;20209;-95
2022/05/10 10:53:29;;;;;;;9.38;4.63;;;;;;;22.88;25.98;99783.50;4959631;28;20042;-94
2022/05/10 11:00:08;;;;;;;7.80;3.67;;;;;;;23.05;26.66;99819.00;4892574;29;20073;-89
2022/05/10 11:03:01;;;;;;;8.20;3.53;;;;;;;23.13;25.74;99795.31;4925509;29;20024;-92
2022/05/10 11:05:51;;;;;;;8.63;3.63;;;;;;;23.40;25.92;99813.88;5008335;28;20122;-90
2022/05/10 11:08:28;;;;;;;5.82;3.30;;;;;;;23.47;25.63;99810.56;4956585;28;20075;-90
2022/05/10 11:11:16;;;;;;;9.15;3.95;;;;;;;23.55;26.32;99795.09;4993667;28;20037;-91
2022/05/10 11:14:02;;;;;;;3.97;3.17;;;;;;;23.55;25.98;99797.84;4965825;28;20026;-89
2022/05/10 11:16:44;;;;;;;8.63;3.42;;;;;;;23.74;26.40;99798.06;5001474;28;20533;-90
2022/05/10 11:19:46;;;;;;;5.95;3.60;;;;;;;23.66;23.53;99800.91;4976276;28;20031;-95
2022/05/10 11:22:38;;;;;;;5.25;3.58;;;;;;;23.77;24.29;99783.63;4972701;28;20059;-95
2022/05/10 11:26:00;;;;;;;;;;;;;;;;;;;;;
2022/05/10 11:28:51;;;;;;;10.68;4.82;;;;;;;24.02;23.87;99786.31;4910910;29;20063;-94
2022/05/10 11:31:51;;;;;;;9.90;3.83;;;;;;;23.93;23.94;99769.97;4971311;28;20043;-95
2022/05/10 11:34:33;;;;;;;6.05;3.20;;;;;;;23.98;25.26;99772.44;4938148;28;20046;-95
2022/05/10 11:37:03;;;;;;;6.30;3.60;;;;;;;23.95;24.47;99742.91;4969765;28;20070;-96
2022/05/10 11:39:52;;;;;;;12.65;4.88;;;;;;;24.28;24.83;99772.13;4939053;28;20018;-95
2022/05/10 11:42:45;;;;;;;5.20;3.20;;;;;;;24.34;23.92;99767.97;4971524;28;20038;-95
2022/05/10 11:45:22;;;;;;;6.72;3.63;;;;;;;24.27;24.30;99761.47;4973312;28;20041;-95
2022/05/10 11:48:10;;;;;;;11.13;9.00;;;;;;;24.27;24.54;99758.72;4970805;28;20026;-96
2022/05/10 11:54:27;;;;;;;11.30;3.67;;;;;;;24.51;24.91;99750.34;4979753;28;20046;-94
2022/05/10 11:56:53;;;;;;;10.00;4.68;;;;;;;24.23;24.07;99730.28;4971281;28;20046;-94
2022/05/10 11:59:23;;;;;;;12.93;4.25;;;;;;;24.44;25.27;99750.13;4974584;28;20058;-95
2022/05/10 12:01:52;;;;;;;16.95;3.60;;;;;;;24.38;25.01;99741.34;4992554;28;20037;-95
2022/05/10 12:04:36;;;;;;;5.40;3.17;;;;;;;24.41;24.97;99745.34;4976621;28;20022;-94
2022/05/10 12:07:24;;;;;;;27.52;5.68;;;;;;;24.28;25.70;99749.28;4993843;28;20039;-96
2022/05/10 12:10:27;;;;;;;10.23;3.38;;;;;;;24.26;25.67;99735.91;4988113;28;20046;-95
2022/05/10 12:13:00;;;;;;;8.60;3.20;;;;;;;24.41;25.46;99713.09;4992906;28;20037;-95
2022/05/10 12:21:40;;;;;;;7.07;3.33;;;;;;;24.23;25.91;99716.53;4994669;28;20096;-91
2022/05/10 12:24:34;;;;;;;11.45;3.15;;;;;;;24.36;25.25;99718.06;5019996;28;20464;-92
2022/05/10 12:27:22;;;;;;;12.68;3.40;;;;;;;24.26;25.07;99683.63;5002561;28;20048;-89
2022/05/10 12:29:52;;;;;;;6.70;3.10;;;;;;;24.54;25.57;99721.31;4989021;28;20068;-93
2022/05/10 12:32:24;;;;;;;6.82;3.38;;;;;;;24.70;24.41;99707.56;5004339;28;20033;-91
2022/05/10 12:34:56;;;;;;;7.13;3.40;;;;;;;24.77;24.77;99694.75;5023314;28;20013;-93
2022/05/10 12:37:26;;;;;;;9.75;3.95;;;;;;;24.93;24.96;99700.25;4988291;28;20037;-92
2022/05/10 12:40:41;;;;;;;5.45;3.30;;;;;;;24.98;23.03;99702.72;5008729;28;20022;-93
2022/05/10 12:43:38;;;;;;;10.30;3.75;;;;;;;24.85;23.92;99683.91;5008124;28;20033;-92
2022/05/10 12:46:13;;;;;;;6.60;3.25;;;;;;;24.89;23.74;99704.09;5003797;28;20026;-89
2022/05/10 12:49:08;;;;;;;6.78;3.50;;;;;;;24.90;23.23;99694.66;5008111;28;20032;-92
2022/05/10 12:51:53;;;;;;;18.65;4.43;;;;;;;24.83;23.48;99694.50;5030598;28;20037;-88
2022/05/10 12:54:38;;;;;;;8.48;3.55;;;;;;;24.96;23.33;99687.72;5004503;28;20133;-88
2022/05/10 12:57:31;;;;;;;8.80;3.30;;;;;;;24.91;23.47;99683.28;5019339;28;20032;-89
2022/05/10 13:00:11;;;;;;;5.68;3.50;;;;;;;25.08;23.68;99679.34;5005091;28;20025;-90